Kaylor, South Dakota
Current Conditions -  °F | °C
As of 3:55 PM on Saturday 25 Oct 2014 (Local Time) from KYKN Reporting Station
Clear Clear  
Wind Chill: 70°   Ceiling: Unl
Heat Index: 70°   Visibility: 10mi
Dew Point: 36°   Wind: 6mph
Humidity: 28%   Direction: 50°NE
Pressure: 30.09"   Gusts: NA
Location:  43.19°N, 97.84°W
Report Text: KYKN 252055Z AUTO 05005KT 10SM CLR 21/02 A3009 RMK AO1 57020
Loading
Personal Weather Stations






























Interactive Weather Map
Tropical Storm Tracking
New forecast layout! Learn more

10-Day Weather Forecast

Advertisements
Track Severe Weather on mobile